Time;durP1;ratioP1;P1;durP2;ratioP2;P2;SDS_P1;SDS_P2;PMS_P1;PMS_P2;Temp;Humidity;BMP_temperature;BMP_pressure;BME280_temperature;BME280_humidity;BME280_pressure;Samples;Min_cycle;Max_cycle;Signal;HPM_P1;HPM_P2
2022/05/16 00:01:50;;;;;;;13.73;6.03;;;11.90;99.90;;;;;;5028167;28;20056;-42
2022/05/16 00:04:16;;;;;;;13.63;5.80;;;11.90;99.90;;;;;;5020053;28;20127;-42
2022/05/16 00:06:42;;;;;;;14.95;6.32;;;12.00;99.90;;;;;;5011301;28;20066;-42
2022/05/16 00:09:08;;;;;;;10.77;6.22;;;11.80;99.90;;;;;;5026066;28;20127;-42
2022/05/16 00:11:34;;;;;;;12.88;5.57;;;11.80;99.90;;;;;;5022322;28;20046;-42
2022/05/16 00:14:00;;;;;;;12.02;5.22;;;11.80;99.90;;;;;;5024467;28;20451;-42
2022/05/16 00:16:25;;;;;;;11.40;5.15;;;11.80;99.90;;;;;;5011792;28;20477;-42
2022/05/16 00:18:51;;;;;;;9.98;5.65;;;11.70;99.90;;;;;;5024371;28;20048;-42
2022/05/16 00:21:18;;;;;;;12.48;5.75;;;11.70;99.90;;;;;;5024748;28;20042;-42
2022/05/16 00:23:44;;;;;;;11.32;5.60;;;11.70;99.90;;;;;;5008126;28;20057;-42
2022/05/16 00:26:10;;;;;;;12.95;5.35;;;11.70;99.90;;;;;;4990383;28;20050;-42
2022/05/16 00:28:36;;;;;;;13.98;5.72;;;11.60;99.90;;;;;;5010357;28;20057;-42
2022/05/16 00:31:03;;;;;;;10.10;5.10;;;11.60;99.90;;;;;;5026911;28;20042;-40
2022/05/16 00:33:29;;;;;;;14.02;6.55;;;11.60;99.90;;;;;;5024341;28;20133;-41
2022/05/16 00:35:54;;;;;;;11.75;6.00;;;11.60;99.90;;;;;;5019183;28;20181;-41
2022/05/16 00:38:20;;;;;;;11.25;5.70;;;11.60;99.90;;;;;;5012627;28;20042;-41
2022/05/16 00:40:46;;;;;;;10.63;5.97;;;11.60;99.90;;;;;;5025395;28;20078;-41
2022/05/16 00:43:13;;;;;;;11.45;5.90;;;11.60;99.90;;;;;;5025642;28;20137;-41
2022/05/16 00:45:39;;;;;;;14.68;5.82;;;11.60;99.90;;;;;;5022319;28;20038;-41
2022/05/16 00:48:06;;;;;;;12.77;6.30;;;11.50;99.90;;;;;;5012019;28;20089;-41
2022/05/16 00:50:39;;;;;;;10.30;5.43;;;11.50;99.90;;;;;;5024005;28;20046;-41
2022/05/16 00:53:06;;;;;;;14.30;6.18;;;11.50;99.90;;;;;;5021826;28;20301;-42
2022/05/16 00:55:36;;;;;;;10.13;5.93;;;11.50;99.90;;;;;;5022410;28;20080;-41
2022/05/16 00:58:09;;;;;;;11.45;5.90;;;11.60;99.90;;;;;;5008320;28;20037;-41
2022/05/16 01:00:38;;;;;;;8.63;6.00;;;11.60;99.90;;;;;;5022312;28;20045;-41
2022/05/16 01:05:54;;;;;;;10.63;5.75;;;11.60;99.90;;;;;;5023026;28;20044;-41
2022/05/16 01:08:24;;;;;;;14.93;6.57;;;11.60;99.90;;;;;;4994558;28;20405;-41
2022/05/16 01:10:50;;;;;;;17.02;5.85;;;11.60;99.90;;;;;;5001058;28;20046;-42
2022/05/16 01:13:16;;;;;;;11.43;5.68;;;11.50;99.90;;;;;;5013296;28;20607;-41
2022/05/16 01:15:47;;;;;;;8.23;4.78;;;11.60;99.90;;;;;;5026249;28;20192;-41
2022/05/16 01:18:17;;;;;;;;;;;11.60;99.90;;;;;;5006275;28;20061;-41
2022/05/16 01:20:52;;;;;;;14.23;5.05;;;11.60;99.90;;;;;;5026292;28;19935;-41
2022/05/16 01:23:20;;;;;;;10.68;5.20;;;11.60;99.90;;;;;;5020611;28;20136;-41
2022/05/16 01:25:49;;;;;;;12.68;5.30;;;11.60;99.90;;;;;;5018685;28;20041;-41
2022/05/16 01:28:18;;;;;;;7.93;4.72;;;11.60;99.90;;;;;;5010879;28;20540;-42
2022/05/16 01:30:46;;;;;;;8.77;4.45;;;11.60;99.90;;;;;;5021560;28;20172;-41
2022/05/16 01:33:21;;;;;;;8.85;4.43;;;11.60;99.90;;;;;;5015307;28;20418;-41
2022/05/16 01:35:47;;;;;;;7.97;4.78;;;11.70;99.90;;;;;;5001154;28;20434;-41
2022/05/16 01:38:26;;;;;;;9.75;4.30;;;11.70;99.90;;;;;;4992868;28;20050;-41
2022/05/16 01:40:53;;;;;;;10.90;4.15;;;11.80;99.90;;;;;;4994108;28;20053;-41
2022/05/16 01:43:24;;;;;;;8.85;4.60;;;11.70;99.90;;;;;;5014436;28;20054;-41
2022/05/16 01:45:51;;;;;;;8.27;4.15;;;11.70;99.90;;;;;;5024274;28;20056;-41
2022/05/16 01:48:17;;;;;;;12.20;4.30;;;11.70;99.90;;;;;;5007040;28;20076;-41
2022/05/16 01:50:44;;;;;;;6.15;3.60;;;11.70;99.90;;;;;;5017319;28;20081;-41
2022/05/16 01:53:12;;;;;;;6.90;3.90;;;11.80;99.90;;;;;;5024124;28;20091;-41
2022/05/16 01:55:37;;;;;;;5.03;3.42;;;11.70;99.90;;;;;;5024955;28;20042;-42
2022/05/16 01:58:04;;;;;;;9.05;3.80;;;11.70;99.90;;;;;;5006952;28;20045;-41
2022/05/16 02:00:33;;;;;;;6.93;3.70;;;11.70;99.90;;;;;;5020344;28;20050;-41
2022/05/16 02:03:00;;;;;;;7.90;3.20;;;11.70;99.90;;;;;;5021962;28;20052;-41
2022/05/16 02:05:26;;;;;;;9.25;3.40;;;11.80;99.90;;;;;;5019598;28;20041;-41
2022/05/16 02:07:52;;;;;;;7.00;3.67;;;11.70;99.90;;;;;;5007552;28;20091;-41
2022/05/16 02:10:20;;;;;;;5.28;3.45;;;11.70;99.90;;;;;;5020971;28;20049;-41
2022/05/16 02:12:46;;;;;;;5.65;3.00;;;11.70;99.90;;;;;;5022123;28;20048;-41
2022/05/16 02:15:17;;;;;;;8.05;3.40;;;11.70;99.90;;;;;;5017985;28;20038;-41
2022/05/16 02:17:42;;;;;;;6.40;3.20;;;11.70;99.90;;;;;;5008900;28;20037;-41
2022/05/16 02:20:08;;;;;;;4.63;2.47;;;11.70;99.90;;;;;;5027605;28;20056;-41
2022/05/16 02:25:19;;;;;;;5.50;2.60;;;11.80;99.90;;;;;;5023077;28;20160;-41
2022/05/16 02:27:46;;;;;;;3.65;2.35;;;11.70;99.90;;;;;;5008657;28;20513;-41
2022/05/16 02:30:13;;;;;;;6.30;2.17;;;11.70;99.90;;;;;;5024000;28;20132;-41
2022/05/16 02:32:38;;;;;;;8.10;2.80;;;11.70;99.90;;;;;;5023261;28;20045;-41
2022/05/16 02:35:05;;;;;;;5.45;2.38;;;11.70;99.90;;;;;;5022332;28;20037;-41
2022/05/16 02:37:31;;;;;;;9.38;2.45;;;11.70;99.90;;;;;;5004755;28;20057;-41
2022/05/16 02:39:56;;;;;;;4.22;2.33;;;11.70;99.90;;;;;;5025085;28;20121;-41
2022/05/16 02:42:22;;;;;;;7.50;2.65;;;11.70;99.90;;;;;;5024594;28;20230;-41
2022/05/16 02:44:48;;;;;;;4.00;2.33;;;11.70;99.90;;;;;;5018669;28;20513;-41
2022/05/16 02:47:16;;;;;;;4.93;2.28;;;11.70;99.90;;;;;;5007031;28;20041;-41
2022/05/16 02:49:43;;;;;;;7.15;2.58;;;11.70;99.90;;;;;;5017579;28;20052;-41
2022/05/16 02:52:09;;;;;;;4.85;2.20;;;11.70;99.90;;;;;;5023415;28;20064;-41
2022/05/16 02:54:34;;;;;;;5.20;2.33;;;11.70;99.90;;;;;;5024003;28;20049;-41
2022/05/16 02:57:00;;;;;;;4.68;2.10;;;11.70;99.90;;;;;;5003831;28;20525;-41
2022/05/16 02:59:32;;;;;;;4.70;2.20;;;11.60;99.90;;;;;;5023109;28;20049;-41
2022/05/16 03:01:58;;;;;;;;;;;11.60;99.90;;;;;;5016491;28;20094;-41
2022/05/16 03:04:23;;;;;;;5.88;2.38;;;11.70;99.90;;;;;;5023497;28;19924;-41
2022/05/16 03:06:49;;;;;;;5.57;2.00;;;11.60;99.90;;;;;;5005387;28;20052;-41
2022/05/16 03:09:15;;;;;;;5.15;2.30;;;11.60;99.90;;;;;;5021113;28;20046;-41
2022/05/16 03:11:40;;;;;;;5.85;2.25;;;11.60;99.90;;;;;;5022879;28;20046;-41
2022/05/16 03:14:06;;;;;;;3.92;2.00;;;11.60;99.90;;;;;;5027893;28;20072;-41
2022/05/16 03:16:33;;;;;;;7.03;2.15;;;11.60;99.90;;;;;;5007662;28;20084;-41
2022/05/16 03:18:58;;;;;;;6.07;2.03;;;11.50;99.90;;;;;;5025121;28;20465;-41
2022/05/16 03:21:24;;;;;;;4.70;1.90;;;11.50;99.90;;;;;;5028519;28;20073;-41
2022/05/16 03:23:50;;;;;;;5.53;2.00;;;11.60;99.90;;;;;;5016942;28;20049;-41
2022/05/16 03:26:15;;;;;;;6.57;2.30;;;11.50;99.90;;;;;;5014137;28;20148;-41
2022/05/16 03:28:41;;;;;;;4.18;1.90;;;11.50;99.90;;;;;;5014494;28;20116;-42
2022/05/16 03:31:09;;;;;;;4.28;1.95;;;11.60;99.90;;;;;;5026448;28;20104;-42
2022/05/16 03:33:34;;;;;;;5.88;2.05;;;11.50;99.90;;;;;;5026988;28;20092;-41
2022/05/16 03:36:00;;;;;;;3.67;2.10;;;11.50;99.90;;;;;;5025913;28;20045;-41
2022/05/16 03:41:12;;;;;;;4.53;2.05;;;11.50;99.90;;;;;;5026945;28;20059;-42
2022/05/16 03:43:40;;;;;;;3.53;1.98;;;11.40;99.90;;;;;;5028019;28;20513;-41
2022/05/16 03:46:07;;;;;;;4.82;1.98;;;11.40;99.90;;;;;;5024006;28;20051;-42
2022/05/16 03:48:33;;;;;;;3.95;1.88;;;11.40;99.90;;;;;;5014510;28;20046;-42
2022/05/16 03:51:00;;;;;;;6.82;2.30;;;11.40;99.90;;;;;;5015729;28;20054;-41
2022/05/16 03:53:26;;;;;;;2.83;1.85;;;11.40;99.90;;;;;;5024615;28;20160;-42
2022/05/16 03:55:52;;;;;;;5.55;2.05;;;11.40;99.90;;;;;;5027963;28;20132;-42
2022/05/16 03:58:18;;;;;;;6.60;2.28;;;11.30;99.90;;;;;;5009570;28;20051;-41
2022/05/16 04:00:45;;;;;;;5.43;2.00;;;11.40;99.90;;;;;;5022119;28;20054;-41
2022/05/16 04:03:10;;;;;;;4.40;1.70;;;11.40;99.90;;;;;;5026905;28;20072;-41
2022/05/16 04:05:37;;;;;;;5.70;2.20;;;11.30;99.90;;;;;;5005005;28;20088;-42
2022/05/16 04:08:03;;;;;;;5.03;2.05;;;11.30;99.90;;;;;;5004367;28;20128;-42
2022/05/16 04:10:28;;;;;;;4.18;2.00;;;11.30;99.90;;;;;;5009613;28;20149;-42
2022/05/16 04:12:54;;;;;;;2.97;1.70;;;11.30;99.90;;;;;;5016875;28;20470;-41
2022/05/16 04:15:22;;;;;;;4.47;2.40;;;11.30;99.90;;;;;;5027941;28;20099;-41
2022/05/16 04:17:49;;;;;;;5.20;2.28;;;11.30;99.90;;;;;;5010300;28;20045;-41
2022/05/16 04:20:15;;;;;;;4.28;2.15;;;11.30;99.90;;;;;;5028488;28;20037;-41
2022/05/16 04:22:42;;;;;;;9.15;2.60;;;11.40;99.90;;;;;;5012492;28;20038;-41
2022/05/16 04:25:10;;;;;;;4.88;1.95;;;11.30;99.90;;;;;;5005074;28;20049;-41
2022/05/16 04:27:35;;;;;;;7.45;2.25;;;11.40;99.90;;;;;;4995152;28;20041;-41
2022/05/16 04:30:02;;;;;;;6.30;1.92;;;11.40;99.90;;;;;;5023852;28;20512;-41
2022/05/16 04:32:28;;;;;;;3.95;1.95;;;11.40;99.90;;;;;;5023595;28;20056;-41
2022/05/16 04:34:53;;;;;;;6.75;2.53;;;11.40;99.90;;;;;;5013962;28;20049;-41
2022/05/16 04:37:19;;;;;;;4.05;2.20;;;11.50;99.90;;;;;;4999267;28;20038;-41
2022/05/16 04:39:45;;;;;;;5.25;2.08;;;11.50;99.90;;;;;;5015743;28;20069;-41
2022/05/16 04:44:55;;;;;;;6.35;2.35;;;11.70;99.90;;;;;;5023781;28;20174;-41
2022/05/16 04:47:21;;;;;;;5.10;2.00;;;11.50;99.90;;;;;;5006943;28;20128;-41
2022/05/16 04:49:46;;;;;;;6.95;2.40;;;11.50;99.90;;;;;;5011662;28;20265;-42
2022/05/16 04:52:12;;;;;;;6.70;2.22;;;11.70;99.90;;;;;;5011276;28;20418;-42
2022/05/16 04:54:40;;;;;;;8.30;2.50;;;11.70;99.90;;;;;;5003692;28;20042;-42
2022/05/16 04:57:06;;;;;;;8.88;2.40;;;11.70;99.90;;;;;;4990910;28;20062;-42
2022/05/16 04:59:32;;;;;;;6.53;2.55;;;11.70;99.90;;;;;;5005860;28;20045;-42
2022/05/16 05:01:58;;;;;;;4.40;2.20;;;11.80;99.90;;;;;;5015780;28;20120;-42
2022/05/16 05:04:24;;;;;;;5.30;2.13;;;11.80;99.90;;;;;;5005996;28;20050;-43
2022/05/16 05:06:50;;;;;;;4.47;2.10;;;11.90;99.90;;;;;;4995875;28;20045;-42
2022/05/16 05:09:17;;;;;;;6.22;2.38;;;12.00;99.90;;;;;;5011592;28;20540;-42
2022/05/16 05:14:32;;;;;;;6.10;1.95;;;12.10;99.90;;;;;;5009538;28;20535;-42
2022/05/16 05:17:02;;;;;;;6.97;2.20;;;12.20;99.90;;;;;;4999221;28;20435;-42
2022/05/16 05:19:28;;;;;;;8.00;2.67;;;12.20;99.90;;;;;;4986334;28;20557;-42
2022/05/16 05:21:54;;;;;;;4.97;2.08;;;12.30;99.90;;;;;;4986845;28;20541;-42
2022/05/16 05:24:20;;;;;;;6.28;2.33;;;12.40;99.90;;;;;;4999910;28;20045;-42
2022/05/16 05:26:48;;;;;;;5.47;2.08;;;12.40;99.90;;;;;;4992564;28;20050;-42
2022/05/16 05:29:16;;;;;;;6.25;2.35;;;12.50;99.90;;;;;;5004339;28;20045;-42
2022/05/16 05:31:43;;;;;;;5.85;2.20;;;12.40;99.90;;;;;;5005386;28;20050;-43
2022/05/16 05:34:11;;;;;;;4.43;2.22;;;12.50;99.90;;;;;;5006902;28;20053;-42
2022/05/16 05:36:38;;;;;;;8.20;2.17;;;12.50;99.90;;;;;;4990005;28;20291;-42
2022/05/16 05:39:05;;;;;;;6.50;2.28;;;12.50;99.90;;;;;;4996278;28;20117;-43
2022/05/16 05:41:31;;;;;;;6.05;2.58;;;12.60;99.90;;;;;;4999992;28;20072;-43
2022/05/16 05:43:57;;;;;;;9.18;2.72;;;12.60;99.90;;;;;;5001601;28;20053;-43
2022/05/16 05:46:23;;;;;;;5.80;2.50;;;12.70;99.90;;;;;;4988037;28;20069;-44
2022/05/16 05:48:50;;;;;;;7.70;2.88;;;12.70;99.90;;;;;;4996866;28;20050;-40
2022/05/16 05:51:16;;;;;;;7.93;2.45;;;12.70;99.90;;;;;;4997808;28;20050;-44
2022/05/16 05:53:43;;;;;;;5.28;2.35;;;12.80;99.90;;;;;;4997560;28;20061;-43
2022/05/16 05:56:11;;;;;;;6.88;2.75;;;12.90;99.90;;;;;;4988416;28;20064;-44
2022/05/16 05:58:37;;;;;;;7.65;2.40;;;12.90;99.90;;;;;;4991376;28;20046;-44
2022/05/16 06:01:04;;;;;;;10.55;2.78;;;13.00;99.90;;;;;;5003112;28;20045;-44
2022/05/16 06:03:30;;;;;;;6.53;2.28;;;13.00;99.90;;;;;;5004244;28;20538;-42
2022/05/16 06:05:56;;;;;;;9.98;2.70;;;13.10;99.90;;;;;;5020029;28;20513;-42
2022/05/16 06:08:22;;;;;;;5.40;2.35;;;13.10;99.90;;;;;;5002694;28;20076;-41
2022/05/16 06:10:49;;;;;;;6.30;2.45;;;13.10;99.90;;;;;;5018737;28;20377;-41
2022/05/16 06:13:19;;;;;;;7.47;2.47;;;13.20;99.90;;;;;;5020103;28;20484;-41
2022/05/16 06:15:44;;;;;;;7.70;2.58;;;13.20;99.90;;;;;;5016574;28;20470;-41
2022/05/16 06:18:10;;;;;;;7.38;2.83;;;13.30;99.90;;;;;;5007427;28;20124;-42
2022/05/16 06:20:37;;;;;;;8.15;2.55;;;13.30;99.90;;;;;;5012376;28;21001;-41
2022/05/16 06:23:03;;;;;;;10.13;2.67;;;13.40;99.90;;;;;;5007799;28;20063;-42
2022/05/16 06:25:31;;;;;;;8.93;2.85;;;13.50;99.90;;;;;;5009810;28;20544;-42
2022/05/16 06:27:59;;;;;;;8.73;2.72;;;13.60;99.90;;;;;;4997649;28;20069;-42
2022/05/16 06:30:25;;;;;;;5.72;2.70;;;13.70;99.90;;;;;;5014996;28;20045;-43
2022/05/16 06:32:50;;;;;;;6.53;2.80;;;13.80;99.90;;;;;;5010262;28;20055;-43
2022/05/16 06:35:16;;;;;;;8.55;2.60;;;14.00;99.90;;;;;;5022478;28;20424;-42
2022/05/16 06:37:42;;;;;;;5.75;2.75;;;14.20;99.90;;;;;;4998200;28;20103;-43
2022/05/16 06:40:10;;;;;;;5.65;2.40;;;14.30;99.90;;;;;;5016242;28;20042;-43
2022/05/16 06:42:36;;;;;;;7.53;2.63;;;14.40;99.90;;;;;;5012150;28;20492;-42
2022/05/16 06:45:02;;;;;;;6.78;2.60;;;14.60;99.90;;;;;;5014122;28;20359;-43
2022/05/16 06:47:28;;;;;;;9.68;2.72;;;14.70;99.90;;;;;;5001865;28;20412;-43
2022/05/16 06:49:54;;;;;;;7.25;2.55;;;14.90;99.90;;;;;;5027194;28;20037;-44
2022/05/16 06:52:20;;;;;;;8.23;2.95;;;14.90;99.90;;;;;;5027519;28;20096;-43
2022/05/16 06:54:45;;;;;;;7.07;2.72;;;15.10;99.90;;;;;;5025850;28;20041;-44
2022/05/16 06:57:12;;;;;;;11.23;3.03;;;15.20;99.90;;;;;;5002392;28;20055;-43
2022/05/16 06:59:38;;;;;;;6.10;2.67;;;15.30;99.90;;;;;;5029440;28;20061;-44
2022/05/16 07:02:06;;;;;;;7.10;3.10;;;15.40;99.90;;;;;;5022889;28;20076;-44
2022/05/16 07:04:32;;;;;;;10.35;2.67;;;15.60;99.90;;;;;;5014508;28;20049;-44
2022/05/16 07:06:58;;;;;;;7.07;2.45;;;15.70;99.90;;;;;;5004318;28;20049;-42
2022/05/16 07:09:24;;;;;;;6.28;2.80;;;15.70;99.90;;;;;;5018723;28;20091;-42
2022/05/16 07:11:49;;;;;;;7.40;2.58;;;15.90;99.90;;;;;;5021157;28;20521;-43
2022/05/16 07:14:15;;;;;;;7.50;2.70;;;16.00;99.90;;;;;;5024684;28;20443;-42
2022/05/16 07:16:41;;;;;;;11.32;2.92;;;16.10;99.90;;;;;;5014680;28;20037;-42
2022/05/16 07:19:06;;;;;;;9.52;2.92;;;16.20;99.90;;;;;;5021402;28;20103;-42
2022/05/16 07:21:33;;;;;;;6.65;2.50;;;16.30;99.90;;;;;;5023937;28;20519;-43
2022/05/16 07:23:58;;;;;;;8.00;2.80;;;16.40;99.90;;;;;;5023626;28;20140;-42
2022/05/16 07:29:08;;;;;;;7.95;2.40;;;16.50;99.90;;;;;;5027093;28;20139;-42
2022/05/16 07:31:36;;;;;;;6.88;2.35;;;16.60;99.90;;;;;;5026017;28;20081;-42
2022/05/16 07:34:02;;;;;;;9.95;2.95;;;16.70;99.90;;;;;;5023084;28;20491;-41
2022/05/16 07:36:27;;;;;;;11.40;3.10;;;16.80;99.90;;;;;;5005104;28;20449;-42
2022/05/16 07:38:53;;;;;;;8.20;2.80;;;16.80;99.90;;;;;;4984021;28;20401;-42
2022/05/16 07:41:19;;;;;;;6.45;2.60;;;16.90;99.90;;;;;;4987874;28;20058;-41
2022/05/16 07:43:44;;;;;;;11.35;2.33;;;16.90;99.90;;;;;;4987733;28;20095;-41
2022/05/16 07:46:10;;;;;;;6.95;2.67;;;17.00;99.90;;;;;;4985951;28;20060;-42
2022/05/16 07:48:36;;;;;;;9.63;2.72;;;17.10;99.90;;;;;;4988756;28;20054;-42
2022/05/16 07:51:02;;;;;;;7.00;2.75;;;17.10;99.90;;;;;;4985203;28;20054;-42
2022/05/16 07:53:28;;;;;;;10.15;2.55;;;17.20;99.90;;;;;;4987009;28;20389;-42
2022/05/16 07:55:55;;;;;;;6.88;2.70;;;17.20;99.90;;;;;;4984284;28;20564;-42
2022/05/16 07:58:25;;;;;;;6.25;2.85;;;17.30;99.90;;;;;;4984771;28;20069;-42
2022/05/16 08:00:52;;;;;;;8.52;3.05;;;17.30;99.90;;;;;;4986337;28;20538;-42
2022/05/16 08:03:20;;;;;;;10.63;2.92;;;17.40;99.90;;;;;;4984094;28;20541;-42
2022/05/16 08:05:46;;;;;;;8.20;2.72;;;17.50;99.90;;;;;;4986246;28;20115;-42
2022/05/16 08:10:58;;;;;;;9.45;2.58;;;17.70;99.90;;;;;;4985821;28;20479;-42
2022/05/16 08:13:25;;;;;;;10.10;3.05;;;17.70;99.90;;;;;;4987147;28;20404;-43
2022/05/16 08:15:50;;;;;;;7.32;2.78;;;17.70;99.90;;;;;;4984035;28;20053;-42
2022/05/16 08:18:16;;;;;;;12.38;2.97;;;17.80;99.90;;;;;;4986308;28;20046;-42
2022/05/16 08:20:45;;;;;;;10.50;2.65;;;17.80;99.90;;;;;;5017984;28;20126;-42
2022/05/16 08:23:12;;;;;;;9.18;2.65;;;17.90;99.90;;;;;;4985812;28;20513;-42
2022/05/16 08:25:38;;;;;;;6.68;2.67;;;18.00;99.90;;;;;;4984310;28;20050;-42
2022/05/16 08:28:04;;;;;;;12.73;2.83;;;18.10;99.90;;;;;;4980895;28;20057;-42
2022/05/16 08:30:30;;;;;;;11.02;3.03;;;18.20;99.90;;;;;;4984416;28;20124;-42
2022/05/16 08:32:58;;;;;;;12.63;3.25;;;18.30;99.90;;;;;;4983729;28;20079;-42
2022/05/16 08:35:23;;;;;;;7.40;2.90;;;18.30;99.90;;;;;;4983385;28;20054;-42
2022/05/16 08:40:58;;;;;;;8.73;2.78;;;18.50;99.90;;;;;;4984112;28;20197;-42
2022/05/16 08:43:50;;;;;;;12.15;3.10;;;18.60;99.90;;;;;;4984222;28;20077;-42
2022/05/16 08:46:32;;;;;;;10.38;2.97;;;18.70;99.90;;;;;;4983183;28;20054;-42
2022/05/16 08:49:01;;;;;;;;;;;18.80;99.90;;;;;;4985640;28;20057;-42
2022/05/16 08:51:31;;;;;;;12.25;3.03;;;18.80;99.90;;;;;;4984955;28;20620;-42
2022/05/16 08:54:32;;;;;;;11.23;2.95;;;18.90;99.90;;;;;;4985740;28;20049;-42
2022/05/16 08:57:01;;;;;;;10.73;3.05;;;19.00;99.90;;;;;;4940823;28;20043;-42
2022/05/16 08:59:29;;;;;;;7.85;3.13;;;19.10;99.90;;;;;;4972565;28;20069;-42
2022/05/16 09:02:08;;;;;;;9.32;2.65;;;19.20;99.90;;;;;;4983748;28;20402;-42
2022/05/16 09:04:52;;;;;;;9.20;2.65;;;19.30;99.90;;;;;;4986960;28;20056;-42
2022/05/16 09:07:26;;;;;;;8.30;2.53;;;19.40;99.90;;;;;;4983908;28;20058;-42
2022/05/16 09:10:05;;;;;;;9.90;2.95;;;19.50;99.90;;;;;;4983574;28;20405;-42
2022/05/16 09:12:39;;;;;;;9.43;2.92;;;19.50;99.90;;;;;;4983012;28;20053;-42
2022/05/16 09:15:19;;;;;;;9.38;2.72;;;19.60;99.90;;;;;;4985368;28;20282;-42
2022/05/16 09:18:36;;;;;;;6.43;2.97;;;19.70;99.90;;;;;;4970888;28;20132;-42
2022/05/16 09:21:40;;;;;;;8.65;2.55;;;19.60;99.90;;;;;;4977676;28;20053;-42
2022/05/16 09:24:13;;;;;;;11.10;3.03;;;19.70;99.90;;;;;;4987753;28;20627;-42
2022/05/16 09:26:43;;;;;;;15.00;3.28;;;19.80;99.90;;;;;;4986426;28;20049;-42
2022/05/16 09:29:26;;;;;;;7.13;3.00;;;19.90;99.90;;;;;;4986714;28;20058;-42
2022/05/16 09:32:23;;;;;;;9.85;2.72;;;20.00;99.90;;;;;;4986529;28;20042;-42
2022/05/16 09:34:49;;;;;;;7.13;3.00;;;20.10;99.90;;;;;;4969104;28;20159;-42
2022/05/16 09:37:15;;;;;;;11.57;2.88;;;20.20;99.90;;;;;;4986952;28;20054;-42
2022/05/16 09:39:42;;;;;;;11.23;3.13;;;20.30;99.90;;;;;;4987308;28;20459;-42
2022/05/16 09:42:15;;;;;;;6.78;2.50;;;20.40;99.90;;;;;;4984314;28;21622;-42
2022/05/16 09:44:56;;;;;;;10.23;2.70;;;20.50;99.90;;;;;;4988123;28;20054;-42
2022/05/16 09:47:42;;;;;;;9.05;2.90;;;20.50;99.90;;;;;;4984199;28;20045;-43
2022/05/16 09:50:20;;;;;;;7.90;2.85;;;20.70;99.90;;;;;;4986967;28;20053;-43
2022/05/16 09:52:50;;;;;;;7.68;2.78;;;20.80;99.90;;;;;;4986374;28;20485;-42
2022/05/16 09:55:33;;;;;;;8.43;2.60;;;20.90;99.90;;;;;;4986445;28;20056;-42
2022/05/16 09:58:20;;;;;;;7.00;2.60;;;21.00;99.90;;;;;;4984740;28;20064;-42
2022/05/16 10:00:55;;;;;;;9.00;2.88;;;21.10;99.90;;;;;;4989086;28;20060;-43
2022/05/16 10:03:20;;;;;;;10.27;2.53;;;21.20;99.90;;;;;;4985116;28;20042;-42
2022/05/16 10:05:47;;;;;;;8.50;2.55;;;21.30;99.90;;;;;;4990825;28;20479;-42
2022/05/16 10:08:31;;;;;;;8.38;2.70;;;21.40;99.90;;;;;;4985366;28;20065;-43
2022/05/16 10:11:02;;;;;;;10.95;3.13;;;21.40;99.90;;;;;;4987300;28;20515;-43
2022/05/16 10:13:28;;;;;;;10.20;3.03;;;21.60;99.90;;;;;;4985608;28;20123;-42
2022/05/16 10:15:57;;;;;;;6.50;2.88;;;21.60;99.90;;;;;;4987183;28;20119;-43
2022/05/16 10:18:26;;;;;;;11.52;2.72;;;21.70;99.90;;;;;;4985765;28;20046;-43
2022/05/16 10:21:01;;;;;;;11.07;3.22;;;21.80;99.90;;;;;;4987983;28;20056;-42
2022/05/16 10:23:35;;;;;;;10.98;2.83;;;21.90;99.90;;;;;;4984350;28;20587;-42
2022/05/16 10:26:10;;;;;;;9.93;2.70;;;22.00;99.90;;;;;;4987322;28;20414;-42
2022/05/16 10:28:43;;;;;;;6.57;2.33;;;22.10;99.90;;;;;;4983233;28;20064;-42
2022/05/16 10:34:15;;;;;;;5.25;2.35;;;22.20;99.90;;;;;;4983133;28;20056;-43
2022/05/16 10:36:47;;;;;;;8.27;3.08;;;22.30;99.90;;;;;;4986307;28;20060;-43
2022/05/16 10:39:34;;;;;;;9.45;2.72;;;22.30;99.90;;;;;;4985802;28;20045;-43
2022/05/16 10:41:59;;;;;;;9.10;2.60;;;22.50;99.90;;;;;;4983276;28;20046;-43
2022/05/16 10:45:01;;;;;;;10.38;3.20;;;22.60;99.90;;;;;;4984346;28;20456;-43
2022/05/16 10:47:46;;;;;;;11.57;2.50;;;22.70;99.90;;;;;;4982471;28;20066;-43
2022/05/16 10:50:24;;;;;;;10.35;2.75;;;22.90;99.90;;;;;;4986543;28;20053;-43
2022/05/16 10:52:59;;;;;;;8.30;2.53;;;23.10;99.90;;;;;;4985416;28;20045;-43
2022/05/16 10:55:31;;;;;;;9.32;2.60;;;23.20;99.90;;;;;;4987254;28;20487;-43
2022/05/16 10:58:19;;;;;;;10.20;2.60;;;23.30;99.90;;;;;;4984061;28;20096;-43
2022/05/16 11:00:54;;;;;;;6.28;2.60;;;23.30;99.90;;;;;;4958125;28;20050;-43
2022/05/16 11:03:45;;;;;;;6.88;2.92;;;23.40;99.90;;;;;;4981969;28;20493;-43
2022/05/16 11:06:26;;;;;;;7.18;2.53;;;23.50;99.90;;;;;;4967678;28;20367;-44
2022/05/16 11:09:04;;;;;;;7.38;2.72;;;23.60;99.90;;;;;;4966451;28;20042;-43
2022/05/16 11:11:40;;;;;;;6.97;2.42;;;23.70;99.90;;;;;;4984589;28;20065;-43
2022/05/16 11:14:38;;;;;;;11.68;2.78;;;23.70;99.90;;;;;;4985416;28;20050;-43
2022/05/16 11:17:27;;;;;;;8.90;2.60;;;23.80;99.90;;;;;;4985937;28;20061;-44
2022/05/16 11:20:19;;;;;;;14.82;2.60;;;23.90;99.90;;;;;;4985881;28;20060;-44
2022/05/16 11:22:56;;;;;;;6.25;2.58;;;23.90;99.90;;;;;;4982693;28;20501;-43
2022/05/16 11:25:47;;;;;;;11.35;3.10;;;24.00;99.90;;;;;;4986286;28;20082;-43
2022/05/16 11:29:17;;;;;;;7.65;2.72;;;24.00;99.90;;;;;;4983682;28;20082;-43
2022/05/16 11:31:36;;;;;;;10.70;2.30;;;24.00;99.90;;;;;;4976075;28;20163;-43
2022/05/16 11:34:04;;;;;;;6.93;2.65;;;24.00;99.90;;;;;;4983085;28;20514;-44
2022/05/16 11:36:37;;;;;;;7.72;2.58;;;24.00;99.90;;;;;;4989950;28;20049;-43
2022/05/16 11:39:15;;;;;;;7.15;2.40;;;24.00;99.90;;;;;;4987282;28;20167;-43
2022/05/16 11:41:53;;;;;;;7.28;2.67;;;24.00;99.90;;;;;;4992077;28;20053;-43
2022/05/16 11:44:31;;;;;;;6.00;2.20;;;24.00;99.90;;;;;;4986988;28;20572;-43
2022/05/16 11:47:21;;;;;;;7.55;2.47;;;24.10;99.90;;;;;;4989482;28;20508;-43
2022/05/16 11:49:59;;;;;;;9.75;2.30;;;24.10;99.90;;;;;;4992521;28;20062;-43
2022/05/16 11:52:39;;;;;;;7.32;2.38;;;24.20;99.90;;;;;;4988222;28;20421;-43
2022/05/16 12:00:56;;;;;;;8.77;2.85;;;24.30;99.90;;;;;;4990955;28;20053;-43
2022/05/16 12:03:31;;;;;;;10.27;2.70;;;24.40;99.90;;;;;;4986298;28;21208;-43
2022/05/16 12:06:15;;;;;;;8.18;2.42;;;24.40;99.90;;;;;;4990412;28;20049;-43
2022/05/16 12:08:44;;;;;;;12.02;4.25;;;24.50;99.90;;;;;;4985350;28;20128;-43
2022/05/16 12:11:25;;;;;;;12.90;4.60;;;24.60;99.90;;;;;;4992170;28;20517;-43
2022/05/16 12:14:06;;;;;;;11.52;4.38;;;24.60;99.90;;;;;;4987288;28;20145;-43
2022/05/16 12:16:50;;;;;;;10.20;3.45;;;24.60;99.90;;;;;;4989639;28;20053;-43
2022/05/16 12:19:44;;;;;;;12.88;4.20;;;24.60;99.90;;;;;;4986037;28;20073;-43
2022/05/16 12:22:36;;;;;;;9.23;3.95;;;24.60;99.90;;;;;;4990831;28;20524;-43
2022/05/16 12:25:11;;;;;;;15.02;3.70;;;24.60;99.90;;;;;;4980015;28;20062;-43
2022/05/16 12:27:41;;;;;;;10.85;4.03;;;24.50;99.90;;;;;;4984596;28;20282;-43
2022/05/16 12:30:12;;;;;;;11.13;3.75;;;24.50;99.90;;;;;;4988679;28;20058;-43
2022/05/16 12:32:37;;;;;;;12.70;4.13;;;24.50;99.90;;;;;;4987425;28;21937;-43
2022/05/16 12:35:14;;;;;;;9.85;3.97;;;24.50;99.90;;;;;;4987694;28;20058;-43
2022/05/16 12:37:41;;;;;;;11.32;3.42;;;24.40;99.90;;;;;;4986614;28;20477;-43
2022/05/16 12:40:45;;;;;;;11.77;3.63;;;24.40;99.90;;;;;;4989268;28;20058;-43
2022/05/16 12:43:48;;;;;;;12.55;3.13;;;24.30;99.90;;;;;;4985703;28;20045;-43
2022/05/16 12:46:34;;;;;;;12.20;4.38;;;24.30;99.90;;;;;;4987947;28;20076;-43
2022/05/16 12:49:11;;;;;;;11.05;3.78;;;24.30;99.90;;;;;;4987102;28;20218;-43
2022/05/16 12:51:43;;;;;;;9.90;4.00;;;24.30;99.90;;;;;;4990673;28;20057;-43
2022/05/16 12:54:09;;;;;;;10.68;3.55;;;24.30;99.90;;;;;;4987194;28;20046;-43
2022/05/16 12:56:48;;;;;;;11.05;3.58;;;24.30;99.90;;;;;;4990190;28;20397;-43
2022/05/16 12:59:35;;;;;;;14.18;3.88;;;24.20;99.90;;;;;;4987124;28;20140;-43
2022/05/16 13:02:22;;;;;;;10.18;3.75;;;24.20;99.90;;;;;;4990868;28;20061;-43
2022/05/16 13:05:13;;;;;;;10.85;3.90;;;24.20;99.90;;;;;;4987739;28;20662;-43
2022/05/16 13:08:08;;;;;;;9.43;3.55;;;24.20;99.90;;;;;;4986729;28;20104;-43
2022/05/16 13:10:59;;;;;;;12.10;3.67;;;24.20;99.90;;;;;;4991181;28;20096;-43
2022/05/16 13:14:02;;;;;;;13.63;3.60;;;24.30;99.90;;;;;;4985971;28;20915;-43
2022/05/16 13:16:31;;;;;;;16.17;3.67;;;24.30;99.90;;;;;;4989057;28;20045;-43
2022/05/16 13:19:09;;;;;;;12.15;3.47;;;24.30;99.90;;;;;;4984744;28;20501;-43
2022/05/16 13:21:51;;;;;;;10.77;3.30;;;24.30;99.90;;;;;;4987022;28;20054;-43
2022/05/16 13:24:20;;;;;;;11.95;3.65;;;24.30;99.90;;;;;;4986286;28;20116;-42
2022/05/16 13:29:34;;;;;;;11.50;3.70;;;24.40;99.90;;;;;;4986319;28;20124;-43
2022/05/16 13:32:13;;;;;;;12.75;4.35;;;24.40;99.90;;;;;;4989151;28;20050;-42
2022/05/16 13:34:47;;;;;;;11.60;4.78;;;24.40;99.90;;;;;;4986828;28;20489;-43
2022/05/16 13:37:21;;;;;;;10.60;4.50;;;24.30;99.90;;;;;;4988604;28;20462;-43
2022/05/16 13:39:50;;;;;;;14.80;5.30;;;24.30;99.90;;;;;;4987493;28;20564;-43